sensor_id;sensor_type;location;lat;lon;timestamp;temperature;humidity
62007;DHT22;47963;53.008;6.754;2022-12-18T00:02:23;-2.40;99.90
62007;DHT22;47963;53.008;6.754;2022-12-18T00:04:49;-2.50;99.90
62007;DHT22;47963;53.008;6.754;2022-12-18T00:07:14;-2.50;99.90
62007;DHT22;47963;53.008;6.754;2022-12-18T00:09:40;-2.50;99.90
62007;DHT22;47963;53.008;6.754;2022-12-18T00:12:06;-2.60;99.90
62007;DHT22;47963;53.008;6.754;2022-12-18T00:14:32;-2.70;99.90
62007;DHT22;47963;53.008;6.754;2022-12-18T00:16:57;-2.70;99.90
62007;DHT22;47963;53.008;6.754;2022-12-18T00:19:26;-2.70;99.90
62007;DHT22;47963;53.008;6.754;2022-12-18T00:21:51;-2.90;99.90
62007;DHT22;47963;53.008;6.754;2022-12-18T00:24:17;-2.80;99.90
62007;DHT22;47963;53.008;6.754;2022-12-18T00:26:42;-2.70;99.90
62007;DHT22;47963;53.008;6.754;2022-12-18T00:29:11;-2.80;99.90
62007;DHT22;47963;53.008;6.754;2022-12-18T00:31:40;-2.80;99.90
62007;DHT22;47963;53.008;6.754;2022-12-18T00:34:06;-2.90;99.90
62007;DHT22;47963;53.008;6.754;2022-12-18T00:36:34;-3.00;99.90
62007;DHT22;47963;53.008;6.754;2022-12-18T00:39:01;-2.90;99.90
62007;DHT22;47963;53.008;6.754;2022-12-18T00:41:27;-3.00;99.90
62007;DHT22;47963;53.008;6.754;2022-12-18T00:44:13;-3.00;99.90
62007;DHT22;47963;53.008;6.754;2022-12-18T00:46:40;-3.00;99.90
62007;DHT22;47963;53.008;6.754;2022-12-18T00:49:05;-3.00;99.90
62007;DHT22;47963;53.008;6.754;2022-12-18T00:51:31;-3.00;99.90
62007;DHT22;47963;53.008;6.754;2022-12-18T00:53:57;-3.00;99.90
62007;DHT22;47963;53.008;6.754;2022-12-18T00:56:23;-3.10;99.90
62007;DHT22;47963;53.008;6.754;2022-12-18T00:58:49;-3.10;99.90
62007;DHT22;47963;53.008;6.754;2022-12-18T01:01:16;-3.10;99.90
62007;DHT22;47963;53.008;6.754;2022-12-18T01:03:42;-3.20;99.90
62007;DHT22;47963;53.008;6.754;2022-12-18T01:06:10;-3.20;99.90
62007;DHT22;47963;53.008;6.754;2022-12-18T01:08:37;-3.20;99.90
62007;DHT22;47963;53.008;6.754;2022-12-18T01:11:12;-3.20;99.90
62007;DHT22;47963;53.008;6.754;2022-12-18T01:13:38;-3.20;99.90
62007;DHT22;47963;53.008;6.754;2022-12-18T01:16:05;-3.20;99.90
62007;DHT22;47963;53.008;6.754;2022-12-18T01:18:30;-3.20;99.90
62007;DHT22;47963;53.008;6.754;2022-12-18T01:20:56;-3.20;99.90
62007;DHT22;47963;53.008;6.754;2022-12-18T01:23:22;-3.20;99.90
62007;DHT22;47963;53.008;6.754;2022-12-18T01:25:48;-3.10;99.90
62007;DHT22;47963;53.008;6.754;2022-12-18T01:28:13;-3.10;99.90
62007;DHT22;47963;53.008;6.754;2022-12-18T01:30:39;-3.10;99.90
62007;DHT22;47963;53.008;6.754;2022-12-18T01:33:05;-3.10;99.90
62007;DHT22;47963;53.008;6.754;2022-12-18T01:35:31;-3.10;99.90
62007;DHT22;47963;53.008;6.754;2022-12-18T01:37:57;-3.30;99.90
62007;DHT22;47963;53.008;6.754;2022-12-18T01:40:23;-3.30;99.90
62007;DHT22;47963;53.008;6.754;2022-12-18T01:42:52;-3.40;99.90
62007;DHT22;47963;53.008;6.754;2022-12-18T01:47:47;-3.40;99.90
62007;DHT22;47963;53.008;6.754;2022-12-18T01:50:19;-3.40;99.90
62007;DHT22;47963;53.008;6.754;2022-12-18T01:52:52;-3.40;99.90
62007;DHT22;47963;53.008;6.754;2022-12-18T01:55:22;-3.40;99.90
62007;DHT22;47963;53.008;6.754;2022-12-18T01:57:52;-3.40;99.90
62007;DHT22;47963;53.008;6.754;2022-12-18T02:00:21;-3.40;99.90
62007;DHT22;47963;53.008;6.754;2022-12-18T02:02:47;-3.50;99.90
62007;DHT22;47963;53.008;6.754;2022-12-18T02:08:03;-3.50;99.90
62007;DHT22;47963;53.008;6.754;2022-12-18T02:13:27;-3.50;99.90
62007;DHT22;47963;53.008;6.754;2022-12-18T02:16:10;-3.60;99.90
62007;DHT22;47963;53.008;6.754;2022-12-18T02:18:41;-3.50;99.90
62007;DHT22;47963;53.008;6.754;2022-12-18T02:21:31;-3.50;99.90
62007;DHT22;47963;53.008;6.754;2022-12-18T02:26:58;-3.50;99.90
62007;DHT22;47963;53.008;6.754;2022-12-18T02:29:28;-3.50;99.90
62007;DHT22;47963;53.008;6.754;2022-12-18T02:31:57;-3.50;99.90
62007;DHT22;47963;53.008;6.754;2022-12-18T02:34:26;-3.50;99.90
62007;DHT22;47963;53.008;6.754;2022-12-18T02:36:54;-3.50;99.90
62007;DHT22;47963;53.008;6.754;2022-12-18T02:39:21;-3.60;99.90
62007;DHT22;47963;53.008;6.754;2022-12-18T02:41:49;-3.60;99.90
62007;DHT22;47963;53.008;6.754;2022-12-18T02:44:15;-3.60;99.90
62007;DHT22;47963;53.008;6.754;2022-12-18T02:46:49;-3.60;99.90
62007;DHT22;47963;53.008;6.754;2022-12-18T03:00:31;-3.80;99.90
62007;DHT22;47963;53.008;6.754;2022-12-18T03:03:07;-3.80;99.90
62007;DHT22;47963;53.008;6.754;2022-12-18T03:05:41;-3.80;99.90
62007;DHT22;47963;53.008;6.754;2022-12-18T03:08:15;-3.80;99.90
62007;DHT22;47963;53.008;6.754;2022-12-18T03:10:48;-3.80;99.90
62007;DHT22;47963;53.008;6.754;2022-12-18T03:13:20;-3.80;99.90
62007;DHT22;47963;53.008;6.754;2022-12-18T03:15:49;-3.70;99.90
62007;DHT22;47963;53.008;6.754;2022-12-18T03:18:35;-3.70;99.90
62007;DHT22;47963;53.008;6.754;2022-12-18T03:21:43;-3.80;99.90
62007;DHT22;47963;53.008;6.754;2022-12-18T03:24:34;-3.80;99.90
62007;DHT22;47963;53.008;6.754;2022-12-18T03:27:10;-3.70;99.90
62007;DHT22;47963;53.008;6.754;2022-12-18T03:30:25;-3.80;99.90
62007;DHT22;47963;53.008;6.754;2022-12-18T03:32:58;-3.80;99.90
62007;DHT22;47963;53.008;6.754;2022-12-18T03:35:30;-3.80;99.90
62007;DHT22;47963;53.008;6.754;2022-12-18T03:37:57;-4.00;99.90
62007;DHT22;47963;53.008;6.754;2022-12-18T03:40:29;-3.90;99.90
62007;DHT22;47963;53.008;6.754;2022-12-18T03:43:03;-4.00;99.90
62007;DHT22;47963;53.008;6.754;2022-12-18T03:45:39;-4.00;99.90
62007;DHT22;47963;53.008;6.754;2022-12-18T03:52:18;-4.00;99.90
62007;DHT22;47963;53.008;6.754;2022-12-18T03:54:58;-4.00;99.90
62007;DHT22;47963;53.008;6.754;2022-12-18T03:57:41;-4.00;99.90
62007;DHT22;47963;53.008;6.754;2022-12-18T04:00:11;-4.00;99.90
62007;DHT22;47963;53.008;6.754;2022-12-18T04:02:44;-4.10;99.90
62007;DHT22;47963;53.008;6.754;2022-12-18T04:05:12;-4.10;99.90
62007;DHT22;47963;53.008;6.754;2022-12-18T04:07:38;-4.10;99.90
62007;DHT22;47963;53.008;6.754;2022-12-18T04:10:07;-4.10;99.90
62007;DHT22;47963;53.008;6.754;2022-12-18T04:12:34;-4.10;99.90
62007;DHT22;47963;53.008;6.754;2022-12-18T04:14:59;-4.10;99.90
62007;DHT22;47963;53.008;6.754;2022-12-18T04:17:25;-4.10;99.90
62007;DHT22;47963;53.008;6.754;2022-12-18T04:19:50;-4.10;99.90
62007;DHT22;47963;53.008;6.754;2022-12-18T04:22:16;-4.10;99.90
62007;DHT22;47963;53.008;6.754;2022-12-18T04:24:42;-4.10;99.90
62007;DHT22;47963;53.008;6.754;2022-12-18T04:27:07;-4.20;99.90
62007;DHT22;47963;53.008;6.754;2022-12-18T04:29:33;-4.30;99.90
62007;DHT22;47963;53.008;6.754;2022-12-18T04:31:58;-4.20;99.90
62007;DHT22;47963;53.008;6.754;2022-12-18T04:34:24;-4.30;99.90
62007;DHT22;47963;53.008;6.754;2022-12-18T04:36:50;-4.40;99.90
62007;DHT22;47963;53.008;6.754;2022-12-18T04:39:15;-4.40;99.90
62007;DHT22;47963;53.008;6.754;2022-12-18T04:41:41;-4.40;99.90
62007;DHT22;47963;53.008;6.754;2022-12-18T04:44:07;-4.40;99.90
62007;DHT22;47963;53.008;6.754;2022-12-18T04:46:32;-4.40;99.90
62007;DHT22;47963;53.008;6.754;2022-12-18T04:48:58;-4.40;99.90
62007;DHT22;47963;53.008;6.754;2022-12-18T04:51:23;-4.40;99.90
62007;DHT22;47963;53.008;6.754;2022-12-18T04:53:49;-4.40;99.90
62007;DHT22;47963;53.008;6.754;2022-12-18T04:56:15;-4.40;99.90
62007;DHT22;47963;53.008;6.754;2022-12-18T04:58:42;-4.40;99.90
62007;DHT22;47963;53.008;6.754;2022-12-18T05:01:09;-4.30;99.90
62007;DHT22;47963;53.008;6.754;2022-12-18T05:03:36;-4.30;99.90
62007;DHT22;47963;53.008;6.754;2022-12-18T05:06:02;-4.30;99.90
62007;DHT22;47963;53.008;6.754;2022-12-18T05:08:28;-4.40;99.90
62007;DHT22;47963;53.008;6.754;2022-12-18T05:11:05;-4.40;99.90
62007;DHT22;47963;53.008;6.754;2022-12-18T05:13:31;-4.40;99.90
62007;DHT22;47963;53.008;6.754;2022-12-18T05:15:57;-4.40;99.90
62007;DHT22;47963;53.008;6.754;2022-12-18T05:18:23;-4.40;99.90
62007;DHT22;47963;53.008;6.754;2022-12-18T05:20:50;-4.40;99.90
62007;DHT22;47963;53.008;6.754;2022-12-18T05:23:16;-4.40;99.90
62007;DHT22;47963;53.008;6.754;2022-12-18T05:25:42;-4.40;99.90
62007;DHT22;47963;53.008;6.754;2022-12-18T05:28:08;-4.40;99.90
62007;DHT22;47963;53.008;6.754;2022-12-18T05:30:34;-4.40;99.90
62007;DHT22;47963;53.008;6.754;2022-12-18T05:32:59;-4.40;99.90
62007;DHT22;47963;53.008;6.754;2022-12-18T05:35:25;-4.50;99.90
62007;DHT22;47963;53.008;6.754;2022-12-18T05:37:50;-4.50;99.90
62007;DHT22;47963;53.008;6.754;2022-12-18T05:40:16;-4.50;99.90
62007;DHT22;47963;53.008;6.754;2022-12-18T05:42:42;-4.50;99.90
62007;DHT22;47963;53.008;6.754;2022-12-18T05:45:07;-4.50;99.90
62007;DHT22;47963;53.008;6.754;2022-12-18T05:47:37;-4.50;99.90
62007;DHT22;47963;53.008;6.754;2022-12-18T05:50:05;-4.50;99.90
62007;DHT22;47963;53.008;6.754;2022-12-18T05:52:39;-4.60;99.90
62007;DHT22;47963;53.008;6.754;2022-12-18T05:58:37;-4.50;99.90
62007;DHT22;47963;53.008;6.754;2022-12-18T06:01:12;-4.50;99.90
62007;DHT22;47963;53.008;6.754;2022-12-18T06:04:00;-4.60;99.90
62007;DHT22;47963;53.008;6.754;2022-12-18T06:06:27;-4.60;99.90
62007;DHT22;47963;53.008;6.754;2022-12-18T06:08:54;-4.60;99.90
62007;DHT22;47963;53.008;6.754;2022-12-18T06:11:23;-4.60;99.90
62007;DHT22;47963;53.008;6.754;2022-12-18T06:13:51;-4.60;99.90
62007;DHT22;47963;53.008;6.754;2022-12-18T06:16:17;-4.60;99.90
62007;DHT22;47963;53.008;6.754;2022-12-18T06:18:42;-4.60;99.90
62007;DHT22;47963;53.008;6.754;2022-12-18T06:21:08;-4.60;99.90
62007;DHT22;47963;53.008;6.754;2022-12-18T06:23:34;-4.60;99.90
62007;DHT22;47963;53.008;6.754;2022-12-18T06:26:04;-4.60;99.90
62007;DHT22;47963;53.008;6.754;2022-12-18T06:28:30;-4.60;99.90
62007;DHT22;47963;53.008;6.754;2022-12-18T06:30:56;-4.70;99.90
62007;DHT22;47963;53.008;6.754;2022-12-18T06:33:21;-4.60;99.90
62007;DHT22;47963;53.008;6.754;2022-12-18T06:35:50;-4.70;99.90
62007;DHT22;47963;53.008;6.754;2022-12-18T06:38:16;-4.70;99.90
62007;DHT22;47963;53.008;6.754;2022-12-18T06:40:42;-4.70;99.90
62007;DHT22;47963;53.008;6.754;2022-12-18T06:43:07;-4.70;99.90
62007;DHT22;47963;53.008;6.754;2022-12-18T06:45:33;-4.70;99.90
62007;DHT22;47963;53.008;6.754;2022-12-18T06:47:59;-4.70;99.90
62007;DHT22;47963;53.008;6.754;2022-12-18T06:50:24;-4.90;99.90
62007;DHT22;47963;53.008;6.754;2022-12-18T06:52:50;-4.80;99.90
62007;DHT22;47963;53.008;6.754;2022-12-18T06:55:15;-4.90;99.90
62007;DHT22;47963;53.008;6.754;2022-12-18T06:57:41;-4.90;99.90
62007;DHT22;47963;53.008;6.754;2022-12-18T07:00:07;-4.90;99.90
62007;DHT22;47963;53.008;6.754;2022-12-18T07:02:33;-4.90;99.90
62007;DHT22;47963;53.008;6.754;2022-12-18T07:04:59;-5.00;99.90
62007;DHT22;47963;53.008;6.754;2022-12-18T07:07:25;-5.10;99.90
62007;DHT22;47963;53.008;6.754;2022-12-18T07:09:51;-5.10;99.90
62007;DHT22;47963;53.008;6.754;2022-12-18T07:12:16;-5.10;99.90
62007;DHT22;47963;53.008;6.754;2022-12-18T07:14:44;-5.10;99.90
62007;DHT22;47963;53.008;6.754;2022-12-18T07:17:09;-5.10;99.90
62007;DHT22;47963;53.008;6.754;2022-12-18T07:19:35;-5.10;99.90
62007;DHT22;47963;53.008;6.754;2022-12-18T07:22:01;-5.10;99.90
62007;DHT22;47963;53.008;6.754;2022-12-18T07:24:27;-5.20;99.90
62007;DHT22;47963;53.008;6.754;2022-12-18T07:26:52;-5.20;99.90
62007;DHT22;47963;53.008;6.754;2022-12-18T07:29:18;-5.10;99.90
62007;DHT22;47963;53.008;6.754;2022-12-18T07:31:44;-5.20;99.90
62007;DHT22;47963;53.008;6.754;2022-12-18T07:34:11;-5.30;99.90
62007;DHT22;47963;53.008;6.754;2022-12-18T07:36:37;-5.20;99.90
62007;DHT22;47963;53.008;6.754;2022-12-18T07:39:02;-5.30;99.90
62007;DHT22;47963;53.008;6.754;2022-12-18T07:41:28;-5.30;99.90
62007;DHT22;47963;53.008;6.754;2022-12-18T07:43:54;-5.30;99.90
62007;DHT22;47963;53.008;6.754;2022-12-18T07:46:19;-5.30;99.90
62007;DHT22;47963;53.008;6.754;2022-12-18T07:48:45;-5.30;99.90
62007;DHT22;47963;53.008;6.754;2022-12-18T07:51:11;-5.30;99.90
62007;DHT22;47963;53.008;6.754;2022-12-18T07:53:38;-5.30;99.90
62007;DHT22;47963;53.008;6.754;2022-12-18T07:56:09;-5.30;99.90
62007;DHT22;47963;53.008;6.754;2022-12-18T07:58:35;-5.20;99.90
62007;DHT22;47963;53.008;6.754;2022-12-18T08:01:09;-5.30;99.90
62007;DHT22;47963;53.008;6.754;2022-12-18T08:03:36;-5.20;99.90
62007;DHT22;47963;53.008;6.754;2022-12-18T08:06:04;-5.20;99.90
62007;DHT22;47963;53.008;6.754;2022-12-18T08:08:30;-5.10;99.90
62007;DHT22;47963;53.008;6.754;2022-12-18T08:10:57;-5.10;99.90
62007;DHT22;47963;53.008;6.754;2022-12-18T08:13:22;-5.10;99.90
62007;DHT22;47963;53.008;6.754;2022-12-18T08:15:59;-5.00;99.90
62007;DHT22;47963;53.008;6.754;2022-12-18T08:18:25;-5.00;99.90
62007;DHT22;47963;53.008;6.754;2022-12-18T08:20:51;-4.90;99.90
62007;DHT22;47963;53.008;6.754;2022-12-18T08:23:16;-4.90;99.90
62007;DHT22;47963;53.008;6.754;2022-12-18T08:25:42;-4.90;99.90
62007;DHT22;47963;53.008;6.754;2022-12-18T08:28:08;-4.80;99.90
62007;DHT22;47963;53.008;6.754;2022-12-18T08:30:33;-4.80;99.90
62007;DHT22;47963;53.008;6.754;2022-12-18T08:32:59;-4.70;99.90
62007;DHT22;47963;53.008;6.754;2022-12-18T08:35:25;-4.80;99.90
62007;DHT22;47963;53.008;6.754;2022-12-18T08:37:50;-4.70;99.90
62007;DHT22;47963;53.008;6.754;2022-12-18T08:40:16;-4.70;99.90
62007;DHT22;47963;53.008;6.754;2022-12-18T08:42:42;-4.70;99.90
62007;DHT22;47963;53.008;6.754;2022-12-18T08:45:26;-4.60;99.90
62007;DHT22;47963;53.008;6.754;2022-12-18T08:48:06;-4.60;99.90
62007;DHT22;47963;53.008;6.754;2022-12-18T08:50:39;-4.50;99.90
62007;DHT22;47963;53.008;6.754;2022-12-18T08:53:06;-4.50;99.90
62007;DHT22;47963;53.008;6.754;2022-12-18T08:59:16;-4.40;99.90
62007;DHT22;47963;53.008;6.754;2022-12-18T09:05:13;-4.40;99.90
62007;DHT22;47963;53.008;6.754;2022-12-18T09:07:50;-4.30;99.90
62007;DHT22;47963;53.008;6.754;2022-12-18T09:13:49;-4.30;99.90
62007;DHT22;47963;53.008;6.754;2022-12-18T09:16:19;-4.20;99.90
62007;DHT22;47963;53.008;6.754;2022-12-18T09:18:45;-4.10;99.90
62007;DHT22;47963;53.008;6.754;2022-12-18T09:21:17;-4.10;99.90
62007;DHT22;47963;53.008;6.754;2022-12-18T09:23:43;-4.10;99.90
62007;DHT22;47963;53.008;6.754;2022-12-18T09:26:09;-4.00;99.90
62007;DHT22;47963;53.008;6.754;2022-12-18T09:28:35;-4.10;99.90
62007;DHT22;47963;53.008;6.754;2022-12-18T09:31:06;-4.00;99.90
62007;DHT22;47963;53.008;6.754;2022-12-18T09:33:35;-3.90;99.90
62007;DHT22;47963;53.008;6.754;2022-12-18T09:36:15;-3.90;99.90
62007;DHT22;47963;53.008;6.754;2022-12-18T09:38:48;-3.80;99.90
62007;DHT22;47963;53.008;6.754;2022-12-18T09:41:49;-3.80;99.90
62007;DHT22;47963;53.008;6.754;2022-12-18T09:44:36;-3.70;99.90
62007;DHT22;47963;53.008;6.754;2022-12-18T09:47:36;-3.70;99.90
62007;DHT22;47963;53.008;6.754;2022-12-18T09:50:14;-3.60;99.90
62007;DHT22;47963;53.008;6.754;2022-12-18T09:52:44;-3.50;99.90
62007;DHT22;47963;53.008;6.754;2022-12-18T09:57:40;-3.40;99.90
62007;DHT22;47963;53.008;6.754;2022-12-18T10:02:36;-3.30;99.90
62007;DHT22;47963;53.008;6.754;2022-12-18T10:05:10;-3.30;99.90
62007;DHT22;47963;53.008;6.754;2022-12-18T10:10:33;-3.20;99.90
62007;DHT22;47963;53.008;6.754;2022-12-18T10:16:17;-3.30;99.90
62007;DHT22;47963;53.008;6.754;2022-12-18T10:24:32;-3.30;99.90
62007;DHT22;47963;53.008;6.754;2022-12-18T10:27:22;-3.20;99.90
62007;DHT22;47963;53.008;6.754;2022-12-18T10:29:48;-3.20;99.90
62007;DHT22;47963;53.008;6.754;2022-12-18T10:32:17;-3.20;99.90
62007;DHT22;47963;53.008;6.754;2022-12-18T10:34:47;-3.20;99.90
62007;DHT22;47963;53.008;6.754;2022-12-18T10:37:17;-3.20;99.90
62007;DHT22;47963;53.008;6.754;2022-12-18T10:39:44;-3.10;99.90
62007;DHT22;47963;53.008;6.754;2022-12-18T10:42:19;-3.10;99.90
62007;DHT22;47963;53.008;6.754;2022-12-18T10:44:45;-3.10;99.90
62007;DHT22;47963;53.008;6.754;2022-12-18T10:47:17;-3.00;99.90
62007;DHT22;47963;53.008;6.754;2022-12-18T10:49:52;-3.00;99.90
62007;DHT22;47963;53.008;6.754;2022-12-18T10:52:23;-3.00;99.90
62007;DHT22;47963;53.008;6.754;2022-12-18T10:55:01;-2.90;99.90
62007;DHT22;47963;53.008;6.754;2022-12-18T10:57:39;-2.90;99.90
62007;DHT22;47963;53.008;6.754;2022-12-18T11:02:50;-2.80;99.90
62007;DHT22;47963;53.008;6.754;2022-12-18T11:05:31;-2.80;99.90
62007;DHT22;47963;53.008;6.754;2022-12-18T11:07:58;-2.70;99.90
62007;DHT22;47963;53.008;6.754;2022-12-18T11:10:38;-2.70;99.90
62007;DHT22;47963;53.008;6.754;2022-12-18T11:13:19;-2.60;99.90
62007;DHT22;47963;53.008;6.754;2022-12-18T11:15:46;-2.50;99.90
62007;DHT22;47963;53.008;6.754;2022-12-18T11:18:38;-2.50;99.90
62007;DHT22;47963;53.008;6.754;2022-12-18T11:21:09;-2.40;99.90
62007;DHT22;47963;53.008;6.754;2022-12-18T11:23:36;-2.40;99.90
62007;DHT22;47963;53.008;6.754;2022-12-18T11:26:04;-2.30;99.90
62007;DHT22;47963;53.008;6.754;2022-12-18T11:29:12;-2.30;99.90
62007;DHT22;47963;53.008;6.754;2022-12-18T11:31:40;-2.30;99.90
62007;DHT22;47963;53.008;6.754;2022-12-18T11:36:45;-2.20;99.90
62007;DHT22;47963;53.008;6.754;2022-12-18T11:39:19;-2.20;99.90
62007;DHT22;47963;53.008;6.754;2022-12-18T11:41:50;-2.10;99.90
62007;DHT22;47963;53.008;6.754;2022-12-18T11:50:01;-2.00;99.90
62007;DHT22;47963;53.008;6.754;2022-12-18T11:52:36;-2.00;99.90
62007;DHT22;47963;53.008;6.754;2022-12-18T11:58:07;-1.90;99.90
62007;DHT22;47963;53.008;6.754;2022-12-18T12:00:41;-1.90;99.90
62007;DHT22;47963;53.008;6.754;2022-12-18T12:03:27;-1.90;99.90
62007;DHT22;47963;53.008;6.754;2022-12-18T12:06:34;-1.90;99.90
62007;DHT22;47963;53.008;6.754;2022-12-18T12:12:27;-1.80;99.90
62007;DHT22;47963;53.008;6.754;2022-12-18T12:19:22;-1.70;99.90
62007;DHT22;47963;53.008;6.754;2022-12-18T12:26:06;-1.60;99.90
62007;DHT22;47963;53.008;6.754;2022-12-18T12:29:09;-1.50;99.90
62007;DHT22;47963;53.008;6.754;2022-12-18T12:35:29;-1.50;99.90
62007;DHT22;47963;53.008;6.754;2022-12-18T12:40:28;-1.40;99.90
62007;DHT22;47963;53.008;6.754;2022-12-18T12:42:59;-1.40;99.90
62007;DHT22;47963;53.008;6.754;2022-12-18T12:45:47;-1.30;99.90
62007;DHT22;47963;53.008;6.754;2022-12-18T12:48:40;-1.30;99.90
62007;DHT22;47963;53.008;6.754;2022-12-18T12:51:22;-1.20;99.90
62007;DHT22;47963;53.008;6.754;2022-12-18T12:53:50;-1.20;99.90
62007;DHT22;47963;53.008;6.754;2022-12-18T12:56:18;-1.20;99.90
62007;DHT22;47963;53.008;6.754;2022-12-18T13:01:59;-1.10;99.90
62007;DHT22;47963;53.008;6.754;2022-12-18T13:04:47;-1.10;99.90
62007;DHT22;47963;53.008;6.754;2022-12-18T13:07:37;-1.10;99.90
62007;DHT22;47963;53.008;6.754;2022-12-18T13:13:05;-1.00;99.90
62007;DHT22;47963;53.008;6.754;2022-12-18T13:16:05;-1.00;99.90
62007;DHT22;47963;53.008;6.754;2022-12-18T13:18:54;-1.00;99.90
62007;DHT22;47963;53.008;6.754;2022-12-18T13:25:44;-1.00;99.90
62007;DHT22;47963;53.008;6.754;2022-12-18T13:31:05;-1.00;99.90
62007;DHT22;47963;53.008;6.754;2022-12-18T13:33:40;-1.00;99.90
62007;DHT22;47963;53.008;6.754;2022-12-18T13:39:34;-1.00;99.90
62007;DHT22;47963;53.008;6.754;2022-12-18T13:46:17;-0.90;99.90
62007;DHT22;47963;53.008;6.754;2022-12-18T13:49:05;-1.00;99.90
62007;DHT22;47963;53.008;6.754;2022-12-18T13:51:48;-1.00;99.90
62007;DHT22;47963;53.008;6.754;2022-12-18T13:54:36;-1.00;99.90
62007;DHT22;47963;53.008;6.754;2022-12-18T13:57:03;-1.00;99.90
62007;DHT22;47963;53.008;6.754;2022-12-18T14:02:00;-1.00;99.90
62007;DHT22;47963;53.008;6.754;2022-12-18T14:08:57;-0.90;99.90
62007;DHT22;47963;53.008;6.754;2022-12-18T14:12:02;-1.00;99.90
62007;DHT22;47963;53.008;6.754;2022-12-18T14:18:24;-1.00;99.90
62007;DHT22;47963;53.008;6.754;2022-12-18T14:20:53;-1.00;99.90
62007;DHT22;47963;53.008;6.754;2022-12-18T14:23:36;-1.10;99.90
62007;DHT22;47963;53.008;6.754;2022-12-18T14:26:18;-1.10;99.90
62007;DHT22;47963;53.008;6.754;2022-12-18T14:28:44;-1.10;99.90
62007;DHT22;47963;53.008;6.754;2022-12-18T14:31:36;-1.10;99.90
62007;DHT22;47963;53.008;6.754;2022-12-18T14:34:02;-1.10;99.90
62007;DHT22;47963;53.008;6.754;2022-12-18T14:36:29;-1.10;99.90
62007;DHT22;47963;53.008;6.754;2022-12-18T14:38:58;-1.10;99.90
62007;DHT22;47963;53.008;6.754;2022-12-18T14:41:25;-1.20;99.90
62007;DHT22;47963;53.008;6.754;2022-12-18T14:43:53;-1.20;99.90
62007;DHT22;47963;53.008;6.754;2022-12-18T14:46:36;-1.20;99.90
62007;DHT22;47963;53.008;6.754;2022-12-18T14:51:51;-1.20;99.90
62007;DHT22;47963;53.008;6.754;2022-12-18T14:54:18;-1.30;99.90
62007;DHT22;47963;53.008;6.754;2022-12-18T14:56:47;-1.30;99.90
62007;DHT22;47963;53.008;6.754;2022-12-18T14:59:16;-1.30;99.90
62007;DHT22;47963;53.008;6.754;2022-12-18T15:01:47;-1.30;99.90
62007;DHT22;47963;53.008;6.754;2022-12-18T15:04:36;-1.30;99.90
62007;DHT22;47963;53.008;6.754;2022-12-18T15:07:20;-1.30;99.90
62007;DHT22;47963;53.008;6.754;2022-12-18T15:15:43;-1.40;99.90
62007;DHT22;47963;53.008;6.754;2022-12-18T15:18:04;-1.40;99.90
62007;DHT22;47963;53.008;6.754;2022-12-18T15:20:46;-1.40;99.90
62007;DHT22;47963;53.008;6.754;2022-12-18T15:23:23;-1.40;99.90
62007;DHT22;47963;53.008;6.754;2022-12-18T15:25:58;-1.40;99.90
62007;DHT22;47963;53.008;6.754;2022-12-18T15:33:41;-1.40;99.90
62007;DHT22;47963;53.008;6.754;2022-12-18T15:36:13;-1.40;99.90
62007;DHT22;47963;53.008;6.754;2022-12-18T15:38:39;-1.40;99.90
62007;DHT22;47963;53.008;6.754;2022-12-18T15:41:06;-1.40;99.90
62007;DHT22;47963;53.008;6.754;2022-12-18T15:43:37;-1.40;99.90
62007;DHT22;47963;53.008;6.754;2022-12-18T15:46:06;-1.40;99.90
62007;DHT22;47963;53.008;6.754;2022-12-18T15:48:38;-1.40;99.90
62007;DHT22;47963;53.008;6.754;2022-12-18T15:51:08;-1.50;99.90
62007;DHT22;47963;53.008;6.754;2022-12-18T15:53:36;-1.40;99.90
62007;DHT22;47963;53.008;6.754;2022-12-18T15:56:01;-1.40;99.90
62007;DHT22;47963;53.008;6.754;2022-12-18T15:58:46;-1.40;99.90
62007;DHT22;47963;53.008;6.754;2022-12-18T16:01:11;-1.50;99.90
62007;DHT22;47963;53.008;6.754;2022-12-18T16:03:37;-1.40;99.90
62007;DHT22;47963;53.008;6.754;2022-12-18T16:06:03;-1.40;99.90
62007;DHT22;47963;53.008;6.754;2022-12-18T16:08:29;-1.40;99.90
62007;DHT22;47963;53.008;6.754;2022-12-18T16:10:56;-1.50;99.90
62007;DHT22;47963;53.008;6.754;2022-12-18T16:13:22;-1.40;99.90
62007;DHT22;47963;53.008;6.754;2022-12-18T16:15:48;-1.40;99.90
62007;DHT22;47963;53.008;6.754;2022-12-18T16:18:14;-1.40;99.90
62007;DHT22;47963;53.008;6.754;2022-12-18T16:20:40;-1.40;99.90
62007;DHT22;47963;53.008;6.754;2022-12-18T16:23:06;-1.40;99.90
62007;DHT22;47963;53.008;6.754;2022-12-18T16:25:32;-1.40;99.90
62007;DHT22;47963;53.008;6.754;2022-12-18T16:27:58;-1.40;99.90
62007;DHT22;47963;53.008;6.754;2022-12-18T16:30:25;-1.40;99.90
62007;DHT22;47963;53.008;6.754;2022-12-18T16:32:53;-1.40;99.90
62007;DHT22;47963;53.008;6.754;2022-12-18T16:35:19;-1.40;99.90
62007;DHT22;47963;53.008;6.754;2022-12-18T16:37:45;-1.40;99.90
62007;DHT22;47963;53.008;6.754;2022-12-18T16:40:13;-1.40;99.90
62007;DHT22;47963;53.008;6.754;2022-12-18T16:42:41;-1.40;99.90
62007;DHT22;47963;53.008;6.754;2022-12-18T16:45:09;-1.40;99.90
62007;DHT22;47963;53.008;6.754;2022-12-18T16:47:35;-1.40;99.90
62007;DHT22;47963;53.008;6.754;2022-12-18T16:50:00;-1.40;99.90
62007;DHT22;47963;53.008;6.754;2022-12-18T16:52:26;-1.40;99.90
62007;DHT22;47963;53.008;6.754;2022-12-18T16:54:52;-1.30;99.90
62007;DHT22;47963;53.008;6.754;2022-12-18T16:57:19;-1.30;99.90
62007;DHT22;47963;53.008;6.754;2022-12-18T16:59:45;-1.30;99.90
62007;DHT22;47963;53.008;6.754;2022-12-18T17:02:23;-1.30;99.90
62007;DHT22;47963;53.008;6.754;2022-12-18T17:04:49;-1.30;99.90
62007;DHT22;47963;53.008;6.754;2022-12-18T17:07:15;-1.30;99.90
62007;DHT22;47963;53.008;6.754;2022-12-18T17:09:41;-1.30;99.90
62007;DHT22;47963;53.008;6.754;2022-12-18T17:12:07;-1.30;99.90
62007;DHT22;47963;53.008;6.754;2022-12-18T17:14:33;-1.30;99.90
62007;DHT22;47963;53.008;6.754;2022-12-18T17:20:14;-1.30;99.90
62007;DHT22;47963;53.008;6.754;2022-12-18T17:23:04;-1.30;99.90
62007;DHT22;47963;53.008;6.754;2022-12-18T17:25:49;-1.20;99.90
62007;DHT22;47963;53.008;6.754;2022-12-18T17:28:42;-1.20;99.90
62007;DHT22;47963;53.008;6.754;2022-12-18T17:31:25;-1.20;99.90
62007;DHT22;47963;53.008;6.754;2022-12-18T17:33:56;-1.20;99.90
62007;DHT22;47963;53.008;6.754;2022-12-18T17:43:59;-1.20;99.90
62007;DHT22;47963;53.008;6.754;2022-12-18T17:46:29;-1.20;99.90
62007;DHT22;47963;53.008;6.754;2022-12-18T17:48:56;-1.10;99.90
62007;DHT22;47963;53.008;6.754;2022-12-18T17:51:22;-1.10;99.90
62007;DHT22;47963;53.008;6.754;2022-12-18T17:53:48;-1.10;99.90
62007;DHT22;47963;53.008;6.754;2022-12-18T17:56:17;-1.10;99.90
62007;DHT22;47963;53.008;6.754;2022-12-18T17:58:43;-1.10;99.90
62007;DHT22;47963;53.008;6.754;2022-12-18T18:01:12;-1.10;99.90
62007;DHT22;47963;53.008;6.754;2022-12-18T18:03:38;-1.00;99.90
62007;DHT22;47963;53.008;6.754;2022-12-18T18:06:04;-1.00;99.90
62007;DHT22;47963;53.008;6.754;2022-12-18T18:08:30;-1.00;99.90
62007;DHT22;47963;53.008;6.754;2022-12-18T18:10:56;-0.90;99.90
62007;DHT22;47963;53.008;6.754;2022-12-18T18:13:42;-0.90;99.90
62007;DHT22;47963;53.008;6.754;2022-12-18T18:16:42;-1.00;99.90
62007;DHT22;47963;53.008;6.754;2022-12-18T18:19:18;-0.90;99.90